Terminal Aerodrome Forecast
Issued by NWS

Home | Current Version | Previous Version | Text Only | Print | Product List | Glossary On
Versions: 1 2 3 4 5 6 7 8 9 10 11 12 13 14 15
296
FTUS41 KPBZ 052011 AAA
TAFBVI
TAF AMD
KBVI 052011Z 0520/0618 27006KT P6SM BKN025
     FM052200 VRB03KT P6SM BKN200
     FM061500 11008KT P6SM -RA OVC040=

USA.gov is the U.S. government's official web portal to all federal, state and local government web resources and services.